createdAt,value
2017-12-20T00:01:39.099Z,102295
2017-12-20T00:04:09.161Z,102296
2017-12-20T00:06:39.095Z,102290
2017-12-20T00:09:09.087Z,102285
2017-12-20T00:11:39.064Z,102284
2017-12-20T00:14:08.987Z,102277
2017-12-20T00:16:38.904Z,102281
2017-12-20T00:19:08.823Z,102283
2017-12-20T00:21:38.716Z,102275
2017-12-20T00:24:08.669Z,102270
2017-12-20T00:26:38.584Z,102277
2017-12-20T00:29:08.559Z,102278
2017-12-20T00:31:38.495Z,102277
2017-12-20T00:34:08.455Z,102280
2017-12-20T00:36:38.381Z,102280
2017-12-20T00:39:08.336Z,102283
2017-12-20T00:41:38.336Z,102281
2017-12-20T00:44:08.302Z,102283
2017-12-20T00:46:38.202Z,102282
2017-12-20T00:49:08.320Z,102285
2017-12-20T00:51:38.262Z,102284
2017-12-20T00:54:08.183Z,102283
2017-12-20T00:56:38.071Z,102286
2017-12-20T00:59:08.134Z,102288
2017-12-20T01:01:38.042Z,102287
2017-12-20T01:04:08.002Z,102282
2017-12-20T01:06:37.907Z,102286
2017-12-20T01:09:08.010Z,102298
2017-12-20T01:11:37.929Z,102295
2017-12-20T01:14:07.870Z,102309
2017-12-20T01:16:37.778Z,102297
2017-12-20T01:19:07.769Z,102312
2017-12-20T01:21:37.695Z,102313
2017-12-20T01:24:07.616Z,102313
2017-12-20T01:26:37.628Z,102307
2017-12-20T01:29:08.497Z,102308
2017-12-20T01:31:38.529Z,102309
2017-12-20T01:34:08.442Z,102319
2017-12-20T01:36:38.365Z,102315
2017-12-20T01:39:08.327Z,102320
2017-12-20T01:41:38.238Z,102320
2017-12-20T01:44:08.162Z,102316
2017-12-20T01:46:38.167Z,102320
2017-12-20T01:49:08.171Z,102314
2017-12-20T01:51:38.111Z,102315
2017-12-20T01:54:08.028Z,102308
2017-12-20T01:56:37.910Z,102328
2017-12-20T01:59:07.798Z,102311
2017-12-20T02:01:37.696Z,102314
2017-12-20T02:04:07.652Z,102324
2017-12-20T02:06:37.630Z,102319
2017-12-20T02:09:07.611Z,102308
2017-12-20T02:11:37.558Z,102304
2017-12-20T02:14:07.534Z,102303
2017-12-20T02:16:37.459Z,102296
2017-12-20T02:19:07.410Z,102285
2017-12-20T02:21:37.283Z,102286
2017-12-20T02:24:07.208Z,102282
2017-12-20T02:26:37.105Z,102277
2017-12-20T02:29:07.605Z,102274
2017-12-20T02:31:37.496Z,102273
2017-12-20T02:34:07.404Z,102277
2017-12-20T02:36:37.279Z,102283
2017-12-20T02:39:08.128Z,102281
2017-12-20T02:41:38.052Z,102287
2017-12-20T02:44:07.958Z,102290
2017-12-20T02:46:37.868Z,102284
2017-12-20T02:49:07.742Z,102283
2017-12-20T02:51:37.651Z,102274
2017-12-20T02:54:07.567Z,102272
2017-12-20T02:56:37.485Z,102273
2017-12-20T02:59:07.374Z,102270
2017-12-20T03:01:37.558Z,102269
2017-12-20T03:04:07.470Z,102280
2017-12-20T03:06:37.385Z,102273
2017-12-20T03:09:07.270Z,102260
2017-12-20T03:11:37.187Z,102264
2017-12-20T03:14:07.195Z,102256
2017-12-20T03:16:37.113Z,102263
2017-12-20T03:19:07.051Z,102252
2017-12-20T03:21:37.012Z,102254
2017-12-20T03:24:06.949Z,102239
2017-12-20T03:26:36.880Z,102247
2017-12-20T03:29:06.764Z,102247
2017-12-20T03:31:36.668Z,102258
2017-12-20T03:34:06.640Z,102242
2017-12-20T03:36:36.555Z,102243
2017-12-20T03:39:06.468Z,102242
2017-12-20T03:41:36.401Z,102248
2017-12-20T03:44:06.350Z,102250
2017-12-20T03:46:36.275Z,102256
2017-12-20T03:49:06.247Z,102257
2017-12-20T03:51:36.150Z,102263
2017-12-20T03:54:06.079Z,102271
2017-12-20T03:56:35.983Z,102262
2017-12-20T03:59:05.895Z,102265
2017-12-20T04:01:35.824Z,102263
2017-12-20T04:04:05.722Z,102264
2017-12-20T04:06:35.660Z,102273
2017-12-20T04:09:05.552Z,102275
2017-12-20T04:11:35.483Z,102284
2017-12-20T04:14:05.403Z,102284
2017-12-20T04:16:35.318Z,102275
2017-12-20T04:19:05.219Z,102274
2017-12-20T04:21:35.166Z,102279
2017-12-20T04:24:05.084Z,102274
2017-12-20T04:26:34.998Z,102271
2017-12-20T04:29:04.918Z,102267
2017-12-20T04:31:34.828Z,102270
2017-12-20T04:34:04.739Z,102268
2017-12-20T04:36:34.760Z,102265
2017-12-20T04:39:04.652Z,102274
2017-12-20T04:41:34.547Z,102266
2017-12-20T04:44:04.541Z,102265
2017-12-20T04:46:34.497Z,102264
2017-12-20T04:49:04.427Z,102260
2017-12-20T04:51:34.325Z,102260
2017-12-20T04:54:04.265Z,102270
2017-12-20T04:56:34.192Z,102271
2017-12-20T04:59:04.127Z,102266
2017-12-20T05:01:34.080Z,102271
2017-12-20T05:04:04.051Z,102275
2017-12-20T05:06:33.951Z,102278
2017-12-20T05:09:03.847Z,102276
2017-12-20T05:11:34.632Z,102279
2017-12-20T05:14:04.704Z,102281
2017-12-20T05:16:34.721Z,102284
2017-12-20T05:19:04.653Z,102289
2017-12-20T05:21:34.583Z,102294
2017-12-20T05:24:04.583Z,102291
2017-12-20T05:26:34.501Z,102297
2017-12-20T05:29:04.704Z,102296
2017-12-20T05:31:34.651Z,102302
2017-12-20T05:34:04.535Z,102288
2017-12-20T05:36:34.553Z,102297
2017-12-20T05:39:04.437Z,102297
2017-12-20T05:41:34.359Z,102291
2017-12-20T05:44:04.262Z,102288
2017-12-20T05:46:34.259Z,102296
2017-12-20T05:49:04.155Z,102298
2017-12-20T05:51:35.827Z,102296
2017-12-20T05:54:05.794Z,102296
2017-12-20T05:56:35.831Z,102301
2017-12-20T05:59:05.805Z,102304
2017-12-20T06:01:35.813Z,102302
2017-12-20T06:04:06.964Z,102310
2017-12-20T06:06:37.009Z,102304
2017-12-20T06:09:06.980Z,102319
2017-12-20T06:11:36.902Z,102308
2017-12-20T06:14:06.805Z,102315
2017-12-20T06:16:36.843Z,102307
2017-12-20T06:19:06.751Z,102320
2017-12-20T06:21:36.705Z,102314
2017-12-20T06:24:06.612Z,102315
2017-12-20T06:26:36.591Z,102315
2017-12-20T06:29:06.600Z,102320
2017-12-20T06:31:36.617Z,102327
2017-12-20T06:34:06.533Z,102329
2017-12-20T06:36:36.580Z,102321
2017-12-20T06:39:06.480Z,102324
2017-12-20T06:41:36.392Z,102326
2017-12-20T06:44:06.316Z,102318
2017-12-20T06:46:36.227Z,102321
2017-12-20T06:49:06.139Z,102318
2017-12-20T06:51:36.212Z,102324
2017-12-20T06:54:06.146Z,102328
2017-12-20T06:56:36.083Z,102330
2017-12-20T06:59:05.990Z,102322
2017-12-20T07:01:36.014Z,102327
2017-12-20T07:04:05.904Z,102334
2017-12-20T07:06:35.846Z,102339
2017-12-20T07:09:05.763Z,102343
2017-12-20T07:11:35.683Z,102334
2017-12-20T07:14:05.638Z,102339
2017-12-20T07:16:35.634Z,102333
2017-12-20T07:19:05.583Z,102344
2017-12-20T07:21:35.533Z,102335
2017-12-20T07:24:05.457Z,102341
2017-12-20T07:26:35.471Z,102349
2017-12-20T07:29:05.387Z,102355
2017-12-20T07:31:35.373Z,102358
2017-12-20T07:34:07.127Z,102365
2017-12-20T07:36:37.072Z,102367
2017-12-20T07:39:07.085Z,102366
2017-12-20T07:41:36.998Z,102364
2017-12-20T07:44:08.660Z,102364
2017-12-20T07:46:38.560Z,102366
2017-12-20T07:49:08.492Z,102378
2017-12-20T07:51:38.413Z,102366
2017-12-20T07:54:08.375Z,102367
2017-12-20T07:56:38.309Z,102372
2017-12-20T07:59:08.323Z,102375
2017-12-20T08:01:38.236Z,102374
2017-12-20T08:04:08.290Z,102376
2017-12-20T08:06:38.202Z,102371
2017-12-20T08:09:08.179Z,102361
2017-12-20T08:11:38.132Z,102362
2017-12-20T08:14:08.115Z,102275
2017-12-20T08:16:38.031Z,102353
2017-12-20T08:19:07.945Z,102350
2017-12-20T08:21:37.906Z,102361
2017-12-20T08:24:07.839Z,102356
2017-12-20T08:26:37.798Z,102354
2017-12-20T08:29:07.768Z,102348
2017-12-20T08:31:37.754Z,102360
2017-12-20T08:34:07.784Z,102348
2017-12-20T08:36:37.780Z,102351
2017-12-20T08:39:07.779Z,102353
2017-12-20T08:41:37.706Z,102359
2017-12-20T08:44:07.696Z,102359
2017-12-20T08:46:37.654Z,102369
2017-12-20T08:49:07.607Z,102373
2017-12-20T08:51:38.862Z,102378
2017-12-20T08:54:08.780Z,102378
2017-12-20T08:56:38.730Z,102372
2017-12-20T08:59:08.630Z,102388
2017-12-20T09:01:38.610Z,102378
2017-12-20T09:04:08.648Z,102382
2017-12-20T09:06:38.590Z,102381
2017-12-20T09:09:08.486Z,102375
2017-12-20T09:11:38.484Z,102374
2017-12-20T09:14:09.455Z,102382
2017-12-20T09:16:39.397Z,102389
2017-12-20T09:19:09.307Z,102391
2017-12-20T09:21:39.250Z,102378
2017-12-20T09:24:09.173Z,102381
2017-12-20T09:26:39.817Z,102385
2017-12-20T09:29:09.789Z,102382
2017-12-20T09:31:39.736Z,102388
2017-12-20T09:34:09.711Z,102387
2017-12-20T09:36:40.100Z,102388
2017-12-20T09:39:10.089Z,102389
2017-12-20T09:41:40.023Z,102386
2017-12-20T09:44:09.982Z,102387
2017-12-20T09:46:39.932Z,102390
2017-12-20T09:49:09.930Z,102386
2017-12-20T09:51:39.848Z,102388
2017-12-20T09:54:10.071Z,102384
2017-12-20T09:56:39.980Z,102399
2017-12-20T09:59:09.915Z,102401
2017-12-20T10:01:39.793Z,102404
2017-12-20T10:04:09.715Z,102407
2017-12-20T10:06:39.658Z,102417
2017-12-20T10:09:09.539Z,102401
2017-12-20T10:11:39.465Z,102403
2017-12-20T10:14:09.390Z,102397
2017-12-20T10:16:39.317Z,102393
2017-12-20T10:19:09.212Z,102387
2017-12-20T10:21:40.868Z,102382
2017-12-20T10:24:10.784Z,102382
2017-12-20T10:26:40.847Z,102378
2017-12-20T10:29:10.762Z,102381
2017-12-20T10:31:40.755Z,102372
2017-12-20T10:34:10.691Z,102377
2017-12-20T10:36:40.650Z,102370
2017-12-20T10:39:10.571Z,102286
2017-12-20T10:41:40.537Z,102364
2017-12-20T10:44:10.455Z,102367
2017-12-20T10:46:40.546Z,102360
2017-12-20T10:49:10.497Z,102356
2017-12-20T10:51:40.436Z,102352
2017-12-20T10:54:10.420Z,102361
2017-12-20T10:56:40.386Z,102347
2017-12-20T10:59:10.302Z,102354
2017-12-20T11:01:40.219Z,102355
2017-12-20T11:04:10.110Z,102350
2017-12-20T11:06:40.345Z,102357
2017-12-20T11:09:10.509Z,102351
2017-12-20T11:11:40.578Z,102345
2017-12-20T11:14:10.508Z,102344
2017-12-20T11:16:40.451Z,102341
2017-12-20T11:19:10.531Z,102352
2017-12-20T11:21:40.430Z,102354
2017-12-20T11:24:10.348Z,102351
2017-12-20T11:26:40.308Z,102352
2017-12-20T11:29:10.223Z,102344
2017-12-20T11:31:40.506Z,102344
2017-12-20T11:34:10.421Z,102344
2017-12-20T11:36:40.404Z,102342
2017-12-20T11:39:10.323Z,102334
2017-12-20T11:41:40.658Z,102333
2017-12-20T11:44:10.551Z,102341
2017-12-20T11:46:40.518Z,102336
2017-12-20T11:49:10.414Z,102344
2017-12-20T11:51:40.340Z,102331
2017-12-20T11:54:10.249Z,102334
2017-12-20T11:56:40.266Z,102321
2017-12-20T11:59:10.185Z,102313
2017-12-20T12:01:40.134Z,102314
2017-12-20T12:04:10.049Z,102319
2017-12-20T12:06:40.751Z,102325
2017-12-20T12:09:10.787Z,102317
2017-12-20T12:11:40.774Z,102319
2017-12-20T12:14:10.669Z,102322
2017-12-20T12:16:40.832Z,102321
2017-12-20T12:19:10.746Z,102321
2017-12-20T12:21:40.661Z,102313
2017-12-20T12:24:10.575Z,102312
2017-12-20T12:26:40.652Z,102311
2017-12-20T12:29:10.573Z,102305
2017-12-20T12:31:40.604Z,102313
2017-12-20T12:34:10.658Z,102305
2017-12-20T12:36:40.633Z,102304
2017-12-20T12:39:10.626Z,102308
2017-12-20T12:41:40.880Z,102310
2017-12-20T12:44:10.929Z,102309
2017-12-20T12:46:41.196Z,102315
2017-12-20T12:49:11.212Z,102308
2017-12-20T12:51:41.534Z,102312
2017-12-20T12:54:11.464Z,102312
2017-12-20T12:56:41.424Z,102317
2017-12-20T12:59:11.307Z,102312
2017-12-20T13:01:41.254Z,102304
2017-12-20T13:04:11.172Z,102305
2017-12-20T13:06:41.223Z,102302
2017-12-20T13:09:11.151Z,102303
2017-12-20T13:11:41.155Z,102293
2017-12-20T13:14:11.108Z,102288
2017-12-20T13:16:41.408Z,102286
2017-12-20T13:19:11.391Z,102282
2017-12-20T13:21:41.460Z,102280
2017-12-20T13:24:11.373Z,102275
2017-12-20T13:26:41.321Z,102280
2017-12-20T13:29:11.236Z,102285
2017-12-20T13:31:41.233Z,102283
2017-12-20T13:34:11.168Z,102282
2017-12-20T13:36:41.288Z,102291
2017-12-20T13:39:11.212Z,102295
2017-12-20T13:41:41.434Z,102283
2017-12-20T13:44:11.377Z,102285
2017-12-20T13:46:41.399Z,102267
2017-12-20T13:49:11.314Z,102267
2017-12-20T13:51:41.566Z,102261
2017-12-20T13:54:11.456Z,102262
2017-12-20T13:56:41.647Z,102265
2017-12-20T13:59:11.658Z,102278
2017-12-20T14:01:41.559Z,102280
2017-12-20T14:04:11.478Z,102290
2017-12-20T14:06:41.486Z,102296
2017-12-20T14:09:11.513Z,102291
2017-12-20T14:11:41.557Z,102293
2017-12-20T14:14:11.446Z,102288
2017-12-20T14:16:41.691Z,102289
2017-12-20T14:19:11.621Z,102285
2017-12-20T14:21:41.846Z,102284
2017-12-20T14:24:11.861Z,102292
2017-12-20T14:26:41.814Z,102289
2017-12-20T14:29:11.740Z,102286
2017-12-20T14:31:41.718Z,102294
2017-12-20T14:34:11.755Z,102303
2017-12-20T14:36:41.971Z,102296
2017-12-20T14:39:11.901Z,102291
2017-12-20T14:41:41.840Z,102292
2017-12-20T14:44:11.920Z,102305
2017-12-20T14:46:42.215Z,102295
2017-12-20T14:49:12.119Z,102298
2017-12-20T14:51:42.411Z,102302
2017-12-20T14:54:12.326Z,102307
2017-12-20T14:56:42.275Z,102310
2017-12-20T14:59:12.231Z,102305
2017-12-20T15:01:42.278Z,102307
2017-12-20T15:04:12.174Z,102307
2017-12-20T15:06:42.133Z,102309
2017-12-20T15:09:12.070Z,102315
2017-12-20T15:11:42.226Z,102317
2017-12-20T15:14:12.167Z,102224
2017-12-20T15:16:42.167Z,102310
2017-12-20T15:19:12.081Z,102309
2017-12-20T15:21:42.034Z,102298
2017-12-20T15:24:11.965Z,102302
2017-12-20T15:26:41.878Z,102296
2017-12-20T15:29:11.794Z,102302
2017-12-20T15:31:41.654Z,102294
2017-12-20T15:34:11.884Z,102297
2017-12-20T15:36:41.787Z,102281
2017-12-20T15:39:11.743Z,102285
2017-12-20T15:41:41.621Z,102288
2017-12-20T15:44:11.598Z,102269
2017-12-20T15:46:41.531Z,102271
2017-12-20T15:49:11.768Z,102277
2017-12-20T15:51:41.751Z,102274
2017-12-20T15:54:11.870Z,102266
2017-12-20T15:56:41.827Z,102262
2017-12-20T15:59:12.082Z,102275
2017-12-20T16:01:41.998Z,102288
2017-12-20T16:04:11.925Z,102293
2017-12-20T16:06:41.978Z,102302
2017-12-20T16:09:11.903Z,102299
2017-12-20T16:11:41.828Z,102313
2017-12-20T16:14:11.772Z,102307
2017-12-20T16:16:41.694Z,102317
2017-12-20T16:19:11.681Z,102318
2017-12-20T16:21:41.743Z,102324
2017-12-20T16:24:11.657Z,102326
2017-12-20T16:26:41.651Z,102328
2017-12-20T16:29:11.544Z,102334
2017-12-20T16:31:41.496Z,102322
2017-12-20T16:34:11.459Z,102327
2017-12-20T16:36:41.837Z,102320
2017-12-20T16:39:11.800Z,102320
2017-12-20T16:41:41.825Z,102323
2017-12-20T16:44:11.779Z,102318
2017-12-20T16:46:41.765Z,102319
2017-12-20T16:49:11.859Z,102322
2017-12-20T16:51:41.829Z,102318
2017-12-20T16:54:11.703Z,102314
2017-12-20T16:56:41.987Z,102308
2017-12-20T16:59:12.512Z,102299
2017-12-20T17:01:42.450Z,102303
2017-12-20T17:04:12.384Z,102303
2017-12-20T17:06:42.606Z,102316
2017-12-20T17:09:12.497Z,102302
2017-12-20T17:11:42.589Z,102311
2017-12-20T17:14:12.509Z,102292
2017-12-20T17:16:42.453Z,102290
2017-12-20T17:19:12.395Z,102297
2017-12-20T17:21:42.457Z,102295
2017-12-20T17:24:12.377Z,102299
2017-12-20T17:26:43.141Z,102305
2017-12-20T17:29:13.192Z,102305
2017-12-20T17:31:43.165Z,102305
2017-12-20T17:34:13.131Z,102308
2017-12-20T17:36:44.000Z,102313
2017-12-20T17:39:13.991Z,102309
2017-12-20T17:41:43.997Z,102304
2017-12-20T17:44:13.892Z,102303
2017-12-20T17:46:43.898Z,102306
2017-12-20T17:49:13.838Z,102305
2017-12-20T17:51:43.814Z,102304
2017-12-20T17:54:13.762Z,102304
2017-12-20T17:56:43.802Z,102309
2017-12-20T17:59:13.723Z,102316
2017-12-20T18:01:43.771Z,102311
2017-12-20T18:04:13.824Z,102315
2017-12-20T18:06:43.793Z,102317
2017-12-20T18:09:13.755Z,102307
2017-12-20T18:11:43.763Z,102313
2017-12-20T18:14:13.704Z,102317
2017-12-20T18:16:44.009Z,102310
2017-12-20T18:19:14.022Z,102314
2017-12-20T18:21:44.080Z,102310
2017-12-20T18:24:13.967Z,102309
2017-12-20T18:26:43.992Z,102312
2017-12-20T18:29:13.890Z,102315
2017-12-20T18:31:43.841Z,102311
2017-12-20T18:34:13.741Z,102300
2017-12-20T18:36:43.668Z,102299
2017-12-20T18:39:13.607Z,102305
2017-12-20T18:41:43.582Z,102306
2017-12-20T18:44:13.518Z,102303
2017-12-20T18:46:43.410Z,102305
2017-12-20T18:49:13.417Z,102306
2017-12-20T18:51:43.298Z,102316
2017-12-20T18:54:13.238Z,102322
2017-12-20T18:56:43.122Z,102309
2017-12-20T18:59:13.162Z,102312
2017-12-20T19:01:43.130Z,102311
2017-12-20T19:04:13.041Z,102310
2017-12-20T19:06:42.967Z,102311
2017-12-20T19:09:12.880Z,102314
2017-12-20T19:11:42.804Z,102317
2017-12-20T19:14:12.765Z,102310
2017-12-20T19:16:42.737Z,102309
2017-12-20T19:19:12.698Z,102312
2017-12-20T19:21:42.745Z,102310
2017-12-20T19:24:12.758Z,102312
2017-12-20T19:26:42.746Z,102309
2017-12-20T19:29:12.669Z,102320
2017-12-20T19:31:42.615Z,102316
2017-12-20T19:34:12.523Z,102312
2017-12-20T19:36:42.503Z,102305
2017-12-20T19:39:12.454Z,102290
2017-12-20T19:41:42.387Z,102280
2017-12-20T19:44:12.293Z,102277
2017-12-20T19:46:42.256Z,102277
2017-12-20T19:49:12.215Z,102275
2017-12-20T19:51:42.166Z,102268
2017-12-20T19:54:12.092Z,102274
2017-12-20T19:56:42.107Z,102281
2017-12-20T19:59:12.153Z,102286
2017-12-20T20:01:42.221Z,102297
2017-12-20T20:04:12.403Z,102296
2017-12-20T20:06:42.404Z,102285
2017-12-20T20:09:12.370Z,102294
2017-12-20T20:11:42.402Z,102290
2017-12-20T20:14:12.407Z,102282
2017-12-20T20:16:42.529Z,102279
2017-12-20T20:19:12.521Z,102280
2017-12-20T20:21:42.493Z,102259
2017-12-20T20:24:12.882Z,102246
2017-12-20T20:26:42.883Z,102241
2017-12-20T20:29:12.821Z,102252
2017-12-20T20:31:42.849Z,102247
2017-12-20T20:34:12.814Z,102243
2017-12-20T20:36:42.787Z,102253
2017-12-20T20:39:12.741Z,102261
2017-12-20T20:41:42.664Z,102243
2017-12-20T20:44:12.619Z,102236
2017-12-20T20:46:42.578Z,102248
2017-12-20T20:49:12.572Z,102244
2017-12-20T20:51:42.609Z,102237
2017-12-20T20:54:12.681Z,102239
2017-12-20T20:56:42.948Z,102241
2017-12-20T20:59:12.892Z,102159
2017-12-20T21:01:42.856Z,102252
2017-12-20T21:04:12.786Z,102264
2017-12-20T21:06:42.787Z,102268
2017-12-20T21:09:12.875Z,102277
2017-12-20T21:11:42.995Z,102269
2017-12-20T21:14:13.099Z,102268
2017-12-20T21:16:43.096Z,102266
2017-12-20T21:19:13.032Z,102269
2017-12-20T21:21:42.960Z,102268
2017-12-20T21:24:12.962Z,102269
2017-12-20T21:26:42.949Z,102267
2017-12-20T21:29:12.923Z,102260
2017-12-20T21:31:42.855Z,102260
2017-12-20T21:34:12.791Z,102253
2017-12-20T21:36:42.719Z,102243
2017-12-20T21:39:12.673Z,102244
2017-12-20T21:41:43.157Z,102247
2017-12-20T21:44:18.836Z,102249
2017-12-20T21:46:49.232Z,102251
2017-12-20T21:49:19.199Z,102233
2017-12-20T21:51:49.122Z,102244
2017-12-20T21:54:20.707Z,102261
2017-12-20T21:56:50.640Z,102256
2017-12-20T21:59:20.706Z,102262
2017-12-20T22:01:50.613Z,102258
2017-12-20T22:04:20.621Z,102252
2017-12-20T22:06:50.555Z,102245
2017-12-20T22:09:20.505Z,102259
2017-12-20T22:11:50.425Z,102255
2017-12-20T22:14:20.441Z,102260
2017-12-20T22:16:51.366Z,102245
2017-12-20T22:19:21.422Z,102253
2017-12-20T22:21:51.408Z,102267
2017-12-20T22:24:21.546Z,102251
2017-12-20T22:26:51.442Z,102250
2017-12-20T22:29:21.366Z,102251
2017-12-20T22:31:51.274Z,102247
2017-12-20T22:34:21.383Z,102252
2017-12-20T22:36:51.325Z,102254
2017-12-20T22:39:21.284Z,102240
2017-12-20T22:41:51.235Z,102232
2017-12-20T22:44:21.187Z,102238
2017-12-20T22:46:51.072Z,102235
2017-12-20T22:49:21.194Z,102220
2017-12-20T22:51:51.343Z,102216
2017-12-20T22:54:21.669Z,102226
2017-12-20T22:56:51.710Z,102217
2017-12-20T22:59:21.676Z,102211
2017-12-20T23:01:51.636Z,102221
2017-12-20T23:04:21.634Z,102218
2017-12-20T23:06:51.590Z,102229
2017-12-20T23:09:21.528Z,102244
2017-12-20T23:11:51.460Z,102235
2017-12-20T23:14:21.459Z,102240
2017-12-20T23:16:51.513Z,102231
2017-12-20T23:19:21.467Z,102228
2017-12-20T23:21:51.420Z,102230
2017-12-20T23:24:21.492Z,102231
2017-12-20T23:26:51.397Z,102229
2017-12-20T23:29:21.363Z,102232
2017-12-20T23:31:51.316Z,102233
2017-12-20T23:34:21.288Z,102230
2017-12-20T23:36:51.204Z,102228
2017-12-20T23:39:21.205Z,102225
2017-12-20T23:41:51.118Z,102221
2017-12-20T23:44:21.086Z,102211
2017-12-20T23:46:50.981Z,102208
2017-12-20T23:49:20.958Z,102207
2017-12-20T23:51:50.872Z,102206
2017-12-20T23:54:20.773Z,102199
2017-12-20T23:56:50.684Z,102203
2017-12-20T23:59:20.598Z,102207
